sensor_id;sensor_type;location;lat;lon;timestamp;P1;durP1;ratioP1;P2;durP2;ratioP2
29764;SDS011;16667;-33.884;151.182;2022-09-20T00:02:06;1303.43;;;949.03;;
29764;SDS011;16667;-33.884;151.182;2022-09-20T00:04:39;1311.07;;;968.47;;
29764;SDS011;16667;-33.884;151.182;2022-09-20T00:07:17;1308.25;;;966.90;;
29764;SDS011;16667;-33.884;151.182;2022-09-20T00:09:51;1312.35;;;973.70;;
29764;SDS011;16667;-33.884;151.182;2022-09-20T00:12:22;1312.90;;;972.42;;
29764;SDS011;16667;-33.884;151.182;2022-09-20T00:14:53;1311.00;;;974.65;;
29764;SDS011;16667;-33.884;151.182;2022-09-20T00:17:23;1316.28;;;982.35;;
29764;SDS011;16667;-33.884;151.182;2022-09-20T00:19:54;1313.05;;;980.40;;
29764;SDS011;16667;-33.884;151.182;2022-09-20T00:22:27;1322.22;;;989.50;;
29764;SDS011;16667;-33.884;151.182;2022-09-20T00:24:58;1307.88;;;974.67;;
29764;SDS011;16667;-33.884;151.182;2022-09-20T00:27:28;1309.27;;;974.23;;
29764;SDS011;16667;-33.884;151.182;2022-09-20T00:29:59;1307.43;;;975.53;;
29764;SDS011;16667;-33.884;151.182;2022-09-20T00:32:34;1311.78;;;988.45;;
29764;SDS011;16667;-33.884;151.182;2022-09-20T00:35:06;1310.97;;;981.17;;
29764;SDS011;16667;-33.884;151.182;2022-09-20T00:37:41;1311.22;;;988.88;;
29764;SDS011;16667;-33.884;151.182;2022-09-20T00:40:13;1315.03;;;992.30;;
29764;SDS011;16667;-33.884;151.182;2022-09-20T00:42:46;1313.78;;;988.03;;
29764;SDS011;16667;-33.884;151.182;2022-09-20T00:45:19;1319.18;;;998.10;;
29764;SDS011;16667;-33.884;151.182;2022-09-20T00:47:52;1313.60;;;993.25;;
29764;SDS011;16667;-33.884;151.182;2022-09-20T00:50:28;1316.00;;;999.67;;
29764;SDS011;16667;-33.884;151.182;2022-09-20T00:53:08;1314.90;;;996.33;;
29764;SDS011;16667;-33.884;151.182;2022-09-20T00:55:41;1313.80;;;999.90;;
29764;SDS011;16667;-33.884;151.182;2022-09-20T00:58:15;1312.90;;;998.53;;
29764;SDS011;16667;-33.884;151.182;2022-09-20T01:00:48;1312.20;;;998.10;;
29764;SDS011;16667;-33.884;151.182;2022-09-20T01:03:23;1306.22;;;992.53;;
29764;SDS011;16667;-33.884;151.182;2022-09-20T01:05:57;1305.70;;;989.13;;
29764;SDS011;16667;-33.884;151.182;2022-09-20T01:08:32;1303.60;;;988.80;;
29764;SDS011;16667;-33.884;151.182;2022-09-20T01:11:04;1302.50;;;986.35;;
29764;SDS011;16667;-33.884;151.182;2022-09-20T01:13:35;1302.30;;;990.20;;
29764;SDS011;16667;-33.884;151.182;2022-09-20T01:16:08;1252.47;;;936.00;;
29764;SDS011;16667;-33.884;151.182;2022-09-20T01:18:40;1248.40;;;942.50;;
29764;SDS011;16667;-33.884;151.182;2022-09-20T01:21:12;1245.55;;;935.15;;
29764;SDS011;16667;-33.884;151.182;2022-09-20T01:23:50;1247.95;;;943.05;;
29764;SDS011;16667;-33.884;151.182;2022-09-20T01:29:36;1251.03;;;941.22;;
29764;SDS011;16667;-33.884;151.182;2022-09-20T01:32:22;1247.97;;;944.63;;
29764;SDS011;16667;-33.884;151.182;2022-09-20T01:34:59;1246.77;;;944.17;;
29764;SDS011;16667;-33.884;151.182;2022-09-20T01:37:32;1250.20;;;949.40;;
29764;SDS011;16667;-33.884;151.182;2022-09-20T01:40:07;1247.82;;;944.15;;
29764;SDS011;16667;-33.884;151.182;2022-09-20T01:42:46;1248.47;;;949.40;;
29764;SDS011;16667;-33.884;151.182;2022-09-20T01:45:26;1245.15;;;950.90;;
29764;SDS011;16667;-33.884;151.182;2022-09-20T01:50:41;6.55;;;1.15;;
29764;SDS011;16667;-33.884;151.182;2022-09-20T01:59:44;4.82;;;1.45;;
29764;SDS011;16667;-33.884;151.182;2022-09-20T02:06:04;11.60;;;1.80;;
29764;SDS011;16667;-33.884;151.182;2022-09-20T02:11:52;187.07;;;105.50;;
29764;SDS011;16667;-33.884;151.182;2022-09-20T02:14:43;4.10;;;1.10;;
29764;SDS011;16667;-33.884;151.182;2022-09-20T02:17:21;5.75;;;1.40;;
29764;SDS011;16667;-33.884;151.182;2022-09-20T02:20:07;5.97;;;1.20;;
29764;SDS011;16667;-33.884;151.182;2022-09-20T02:26:02;7.82;;;1.40;;
29764;SDS011;16667;-33.884;151.182;2022-09-20T02:28:54;7.53;;;1.25;;
29764;SDS011;16667;-33.884;151.182;2022-09-20T02:31:38;7.22;;;1.45;;
29764;SDS011;16667;-33.884;151.182;2022-09-20T02:34:34;4.10;;;1.15;;
29764;SDS011;16667;-33.884;151.182;2022-09-20T02:37:28;7.95;;;1.42;;
29764;SDS011;16667;-33.884;151.182;2022-09-20T02:40:19;10.07;;;1.45;;
29764;SDS011;16667;-33.884;151.182;2022-09-20T02:43:09;9.33;;;1.73;;
29764;SDS011;16667;-33.884;151.182;2022-09-20T02:45:53;5.82;;;1.55;;
29764;SDS011;16667;-33.884;151.182;2022-09-20T02:48:33;6.85;;;1.60;;
29764;SDS011;16667;-33.884;151.182;2022-09-20T02:51:15;6.05;;;1.70;;
29764;SDS011;16667;-33.884;151.182;2022-09-20T02:53:58;10.52;;;1.90;;
29764;SDS011;16667;-33.884;151.182;2022-09-20T02:56:44;40.25;;;13.55;;
29764;SDS011;16667;-33.884;151.182;2022-09-20T02:59:24;5.83;;;1.63;;
29764;SDS011;16667;-33.884;151.182;2022-09-20T03:02:05;6.68;;;1.67;;
29764;SDS011;16667;-33.884;151.182;2022-09-20T03:04:50;5.40;;;1.50;;
29764;SDS011;16667;-33.884;151.182;2022-09-20T03:07:31;8.00;;;1.40;;
29764;SDS011;16667;-33.884;151.182;2022-09-20T03:10:15;5.95;;;1.85;;
29764;SDS011;16667;-33.884;151.182;2022-09-20T03:12:58;7.13;;;1.27;;
29764;SDS011;16667;-33.884;151.182;2022-09-20T03:15:41;5.43;;;1.25;;
29764;SDS011;16667;-33.884;151.182;2022-09-20T03:18:23;6.32;;;1.65;;
29764;SDS011;16667;-33.884;151.182;2022-09-20T03:21:04;7.95;;;1.10;;
29764;SDS011;16667;-33.884;151.182;2022-09-20T03:23:53;10.02;;;1.30;;
29764;SDS011;16667;-33.884;151.182;2022-09-20T03:26:34;9.37;;;1.53;;
29764;SDS011;16667;-33.884;151.182;2022-09-20T03:29:19;5.57;;;1.15;;
29764;SDS011;16667;-33.884;151.182;2022-09-20T03:32:12;6.90;;;1.47;;
29764;SDS011;16667;-33.884;151.182;2022-09-20T03:34:58;5.53;;;1.25;;
29764;SDS011;16667;-33.884;151.182;2022-09-20T03:37:41;6.80;;;1.38;;
29764;SDS011;16667;-33.884;151.182;2022-09-20T03:43:24;5.75;;;1.30;;
29764;SDS011;16667;-33.884;151.182;2022-09-20T03:46:20;5.85;;;1.40;;
29764;SDS011;16667;-33.884;151.182;2022-09-20T03:49:11;4.55;;;1.48;;
29764;SDS011;16667;-33.884;151.182;2022-09-20T03:52:06;7.03;;;1.30;;
29764;SDS011;16667;-33.884;151.182;2022-09-20T03:54:54;4.38;;;1.08;;
29764;SDS011;16667;-33.884;151.182;2022-09-20T03:57:42;5.60;;;1.20;;
29764;SDS011;16667;-33.884;151.182;2022-09-20T04:00:29;5.28;;;1.17;;
29764;SDS011;16667;-33.884;151.182;2022-09-20T04:03:16;7.85;;;1.10;;
29764;SDS011;16667;-33.884;151.182;2022-09-20T04:09:19;6.28;;;1.20;;
29764;SDS011;16667;-33.884;151.182;2022-09-20T04:12:17;7.35;;;1.30;;
29764;SDS011;16667;-33.884;151.182;2022-09-20T04:14:59;4.53;;;1.17;;
29764;SDS011;16667;-33.884;151.182;2022-09-20T04:17:44;6.47;;;1.20;;
29764;SDS011;16667;-33.884;151.182;2022-09-20T04:20:26;6.07;;;1.38;;
29764;SDS011;16667;-33.884;151.182;2022-09-20T04:23:03;4.43;;;1.02;;
29764;SDS011;16667;-33.884;151.182;2022-09-20T04:25:46;6.63;;;1.23;;
29764;SDS011;16667;-33.884;151.182;2022-09-20T04:28:20;6.27;;;1.20;;
29764;SDS011;16667;-33.884;151.182;2022-09-20T04:30:55;6.82;;;1.33;;
29764;SDS011;16667;-33.884;151.182;2022-09-20T04:33:44;5.23;;;1.33;;
